Time;durP1;ratioP1;P1;durP2;ratioP2;P2;SDS_P1;SDS_P2;PMS_P1;PMS_P2;Temp;Humidity;BMP_temperature;BMP_pressure;BME280_temperature;BME280_humidity;BME280_pressure;Samples;Min_cycle;Max_cycle;Signal;HPM_P1;HPM_P2
2021/03/31 00:02:09;;;;;;;10.85;3.47;;;11.10;59.00;;;;;;4928850;28;20054;-57
2021/03/31 00:04:35;;;;;;;7.43;3.50;;;11.00;59.30;;;;;;4930411;29;20024;-60
2021/03/31 00:07:03;;;;;;;6.60;2.97;;;11.00;59.40;;;;;;4893176;29;20618;-61
2021/03/31 00:09:29;;;;;;;7.32;4.00;;;11.00;59.40;;;;;;4928997;29;20032;-60
2021/03/31 00:11:54;;;;;;;10.52;3.35;;;10.90;59.50;;;;;;4944457;29;20042;-61
2021/03/31 00:14:20;;;;;;;18.92;5.15;;;10.90;61.30;;;;;;4931948;29;20036;-61
2021/03/31 00:16:45;;;;;;;8.18;3.35;;;10.90;60.60;;;;;;4931806;29;20035;-61
2021/03/31 00:19:11;;;;;;;13.32;4.18;;;10.90;60.10;;;;;;4933777;29;20403;-61
2021/03/31 00:21:37;;;;;;;5.38;3.40;;;10.90;60.30;;;;;;4930509;29;20031;-60
2021/03/31 00:24:03;;;;;;;9.93;3.50;;;10.90;60.40;;;;;;4937223;28;20525;-61
2021/03/31 00:26:29;;;;;;;11.88;3.67;;;10.90;60.40;;;;;;4938246;29;20040;-62
2021/03/31 00:28:54;;;;;;;9.40;3.92;;;10.90;60.60;;;;;;4932852;29;20493;-60
2021/03/31 00:31:20;;;;;;;8.07;3.72;;;10.90;60.40;;;;;;4923254;29;20028;-61
2021/03/31 00:33:45;;;;;;;7.95;3.95;;;10.90;61.00;;;;;;4926470;29;20115;-59
2021/03/31 00:36:11;;;;;;;5.55;3.28;;;10.90;61.50;;;;;;4926062;29;20079;-60
2021/03/31 00:38:37;;;;;;;8.25;4.10;;;10.90;60.30;;;;;;4924075;29;20111;-61
2021/03/31 00:41:05;;;;;;;8.18;4.47;;;10.80;60.20;;;;;;4930985;28;20032;-61
2021/03/31 00:43:31;;;;;;;9.27;3.60;;;10.80;60.10;;;;;;4930589;29;20031;-62
2021/03/31 00:45:56;;;;;;;13.43;4.25;;;10.90;60.20;;;;;;4936578;29;20031;-61
2021/03/31 00:48:22;;;;;;;11.85;4.22;;;10.90;59.80;;;;;;4935858;29;20023;-60
2021/03/31 00:50:57;;;;;;;7.35;3.53;;;10.90;59.50;;;;;;4933099;29;20039;-62
2021/03/31 00:53:43;;;;;;;6.35;3.40;;;11.00;59.10;;;;;;4922683;29;20027;-61
2021/03/31 00:56:10;;;;;;;10.00;3.47;;;11.00;59.30;;;;;;4927099;29;20119;-61
2021/03/31 00:58:36;;;;;;;9.18;3.88;;;11.00;59.20;;;;;;4928936;29;20032;-61
2021/03/31 01:01:02;;;;;;;12.02;4.15;;;11.00;59.30;;;;;;4933471;29;20122;-62
2021/03/31 01:03:28;;;;;;;6.50;3.50;;;11.00;59.40;;;;;;4929240;29;20095;-62
2021/03/31 01:05:53;;;;;;;10.32;3.63;;;11.00;59.60;;;;;;4937939;29;20031;-59
2021/03/31 01:08:19;;;;;;;8.63;3.55;;;11.00;59.80;;;;;;4910977;28;20044;-60
2021/03/31 01:10:51;;;;;;;5.53;3.22;;;11.00;60.10;;;;;;4927419;29;20039;-60
2021/03/31 01:13:47;;;;;;;8.88;3.55;;;11.00;60.20;;;;;;4930243;29;20040;-61
2021/03/31 01:16:21;;;;;;;9.60;3.33;;;10.90;60.40;;;;;;4927343;29;20035;-61
2021/03/31 01:19:07;;;;;;;8.02;3.20;;;10.80;61.20;;;;;;4933702;29;20131;-61
2021/03/31 01:22:04;;;;;;;8.13;3.50;;;10.70;61.60;;;;;;4934199;29;20035;-61
2021/03/31 01:24:58;;;;;;;7.63;4.00;;;10.70;62.10;;;;;;4934369;29;20030;-62
2021/03/31 01:27:29;;;;;;;8.50;3.38;;;10.50;62.80;;;;;;4928163;29;20480;-60
2021/03/31 01:30:11;;;;;;;7.13;3.45;;;10.40;63.00;;;;;;4934265;29;20039;-61
2021/03/31 01:33:01;;;;;;;6.78;3.80;;;10.30;63.40;;;;;;4930087;29;20066;-60
2021/03/31 01:35:26;;;;;;;15.05;4.05;;;10.20;63.50;;;;;;4931542;29;20110;-61
2021/03/31 01:38:01;;;;;;;9.68;4.57;;;10.10;64.30;;;;;;4934922;29;20115;-59
2021/03/31 01:40:28;;;;;;;6.05;3.58;;;10.10;64.60;;;;;;4940636;29;20062;-62
2021/03/31 01:43:15;;;;;;;10.80;4.10;;;10.00;65.00;;;;;;4929957;29;20031;-60
2021/03/31 01:45:45;;;;;;;7.30;3.50;;;9.90;67.40;;;;;;4937826;29;20036;-62
2021/03/31 01:48:14;;;;;;;8.95;3.80;;;9.80;67.40;;;;;;4927882;29;20031;-61
2021/03/31 01:50:42;;;;;;;5.57;3.40;;;9.80;67.20;;;;;;4940695;29;20028;-61
2021/03/31 01:53:08;;;;;;;7.38;3.50;;;9.70;68.10;;;;;;4933500;29;20028;-60
2021/03/31 01:55:35;;;;;;;13.15;3.65;;;9.80;68.30;;;;;;4934353;29;20150;-61
2021/03/31 01:58:02;;;;;;;9.13;4.70;;;9.80;67.10;;;;;;4926376;29;20035;-60
2021/03/31 02:00:31;;;;;;;15.43;4.55;;;10.00;64.80;;;;;;4930819;29;20053;-60
2021/03/31 02:02:57;;;;;;;7.78;3.53;;;10.00;64.70;;;;;;4925908;28;20108;-60
2021/03/31 02:05:23;;;;;;;6.75;3.35;;;10.00;64.60;;;;;;4931527;29;20070;-60
2021/03/31 02:07:51;;;;;;;6.68;2.97;;;10.10;63.90;;;;;;4923953;29;20066;-62
2021/03/31 02:10:18;;;;;;;6.93;3.25;;;10.20;62.60;;;;;;4928966;29;20517;-61
2021/03/31 02:12:44;;;;;;;12.82;2.92;;;10.40;62.00;;;;;;4926472;29;20551;-61
2021/03/31 02:15:13;;;;;;;7.57;3.55;;;10.50;61.70;;;;;;4937424;29;20087;-61
2021/03/31 02:17:40;;;;;;;6.15;3.38;;;10.40;62.50;;;;;;4943439;28;20036;-60
2021/03/31 02:20:07;;;;;;;6.25;3.25;;;10.40;63.40;;;;;;4931255;29;20393;-61
2021/03/31 02:22:34;;;;;;;7.70;3.05;;;10.40;64.60;;;;;;4933181;29;20082;-61
2021/03/31 02:25:01;;;;;;;9.25;3.83;;;10.20;67.10;;;;;;4934705;28;20034;-61
2021/03/31 02:27:26;;;;;;;8.57;3.58;;;10.10;69.00;;;;;;4925115;29;20034;-60
2021/03/31 02:29:53;;;;;;;8.90;3.83;;;9.80;70.20;;;;;;4937689;29;20034;-60
2021/03/31 02:32:22;;;;;;;6.95;4.13;;;9.50;72.20;;;;;;4928133;29;20444;-61
2021/03/31 02:34:51;;;;;;;7.28;3.67;;;9.20;75.40;;;;;;4935909;29;20031;-60
2021/03/31 02:37:18;;;;;;;12.00;4.05;;;9.10;75.50;;;;;;4930901;29;20034;-62
2021/03/31 02:39:47;;;;;;;9.35;4.78;;;8.90;78.60;;;;;;4940871;29;20601;-59
2021/03/31 02:42:16;;;;;;;10.85;3.60;;;8.80;77.30;;;;;;4931375;29;20032;-60
2021/03/31 02:44:48;;;;;;;11.70;3.90;;;8.80;78.00;;;;;;4937073;29;20470;-61
2021/03/31 02:47:16;;;;;;;12.52;3.17;;;8.70;78.00;;;;;;4925330;29;20023;-59
2021/03/31 02:49:46;;;;;;;7.93;3.28;;;8.70;79.20;;;;;;4935263;29;20039;-62
2021/03/31 02:52:13;;;;;;;10.07;3.53;;;8.60;79.80;;;;;;4937794;29;20418;-60
2021/03/31 02:54:41;;;;;;;6.38;3.45;;;8.50;81.00;;;;;;4935373;29;20034;-61
2021/03/31 02:57:09;;;;;;;9.35;3.42;;;8.60;81.20;;;;;;4925003;29;20509;-61
2021/03/31 02:59:38;;;;;;;6.82;3.00;;;8.60;79.40;;;;;;4931823;29;20870;-61
2021/03/31 03:02:04;;;;;;;9.30;3.63;;;8.60;80.50;;;;;;4928659;29;20220;-61
2021/03/31 03:04:30;;;;;;;8.27;3.00;;;8.60;80.00;;;;;;4932545;29;20032;-61
2021/03/31 03:06:56;;;;;;;9.02;3.55;;;8.70;79.90;;;;;;4933922;29;20075;-61
2021/03/31 03:09:22;;;;;;;8.32;2.95;;;8.70;80.50;;;;;;4939779;28;20042;-60
2021/03/31 03:11:48;;;;;;;6.65;3.63;;;8.80;79.90;;;;;;4934577;29;20064;-60
2021/03/31 03:14:15;;;;;;;7.00;3.30;;;8.80;79.80;;;;;;4936448;29;20453;-61
2021/03/31 03:16:40;;;;;;;7.78;3.08;;;8.70;80.00;;;;;;4935485;29;20043;-60
2021/03/31 03:19:06;;;;;;;6.90;3.10;;;8.70;80.80;;;;;;4932767;29;20042;-61
2021/03/31 03:21:32;;;;;;;11.00;4.05;;;8.70;82.50;;;;;;4934742;29;20044;-61
2021/03/31 03:23:58;;;;;;;13.30;3.95;;;8.60;83.60;;;;;;4934957;29;20032;-61
2021/03/31 03:26:26;;;;;;;12.73;4.70;;;8.60;85.40;;;;;;4937377;28;20031;-62
2021/03/31 03:28:53;;;;;;;10.65;3.90;;;8.50;87.10;;;;;;4933515;29;20496;-61
2021/03/31 03:31:19;;;;;;;11.40;4.10;;;8.50;88.10;;;;;;4937248;29;20453;-61
2021/03/31 03:33:44;;;;;;;5.85;3.42;;;8.40;89.10;;;;;;4935598;29;20078;-60
2021/03/31 03:36:12;;;;;;;13.45;3.60;;;8.40;90.00;;;;;;4932301;29;20035;-60
2021/03/31 03:38:39;;;;;;;7.97;3.20;;;8.40;90.00;;;;;;4915649;29;20047;-59
2021/03/31 03:41:07;;;;;;;8.73;3.88;;;8.40;90.50;;;;;;4937484;29;20082;-61
2021/03/31 03:43:32;;;;;;;9.80;3.72;;;8.30;90.80;;;;;;4932106;28;20031;-61
2021/03/31 03:45:59;;;;;;;6.13;3.38;;;8.20;91.10;;;;;;4933737;28;20032;-61
2021/03/31 03:48:25;;;;;;;9.20;3.55;;;8.20;91.10;;;;;;4925620;29;20043;-58
2021/03/31 03:50:52;;;;;;;6.25;3.33;;;8.10;91.50;;;;;;4936721;28;20524;-60
2021/03/31 03:53:18;;;;;;;11.80;3.40;;;8.10;91.90;;;;;;4933732;29;20043;-61
2021/03/31 03:55:45;;;;;;;7.70;3.20;;;8.10;92.00;;;;;;4936809;28;20028;-61
2021/03/31 03:58:11;;;;;;;8.38;3.92;;;8.10;92.20;;;;;;4917521;29;20042;-61
2021/03/31 04:00:37;;;;;;;10.48;3.33;;;8.10;92.20;;;;;;4929631;29;20404;-60
2021/03/31 04:03:03;;;;;;;7.32;3.08;;;8.10;92.20;;;;;;4915480;29;20043;-60
2021/03/31 04:05:30;;;;;;;10.40;3.45;;;8.00;92.20;;;;;;4934299;29;20027;-59
2021/03/31 04:07:55;;;;;;;9.40;3.05;;;8.10;91.80;;;;;;4939491;28;20035;-58
2021/03/31 04:10:26;;;;;;;7.47;3.00;;;8.10;91.00;;;;;;4928831;29;20038;-60
2021/03/31 04:12:54;;;;;;;9.27;3.08;;;8.10;90.50;;;;;;4930749;29;20039;-59
2021/03/31 04:15:20;;;;;;;5.85;2.97;;;8.20;90.30;;;;;;4928665;29;20024;-60
2021/03/31 04:17:48;;;;;;;7.10;3.30;;;8.30;90.10;;;;;;4931886;29;20035;-59
2021/03/31 04:20:21;;;;;;;9.63;3.88;;;8.30;89.40;;;;;;4943688;28;20747;-60
2021/03/31 04:22:48;;;;;;;5.80;3.00;;;8.30;90.00;;;;;;4936194;29;20043;-60
2021/03/31 04:25:16;;;;;;;5.85;2.67;;;8.30;90.00;;;;;;4931375;29;20287;-59
2021/03/31 04:27:45;;;;;;;7.13;2.88;;;8.30;90.30;;;;;;4928212;29;20028;-58
2021/03/31 04:30:13;;;;;;;8.30;3.22;;;8.20;91.50;;;;;;4927721;29;20055;-58
2021/03/31 04:32:40;;;;;;;12.07;3.38;;;8.10;92.00;;;;;;4929959;29;20060;-58
2021/03/31 04:35:06;;;;;;;8.88;3.75;;;8.00;92.50;;;;;;4930722;29;20624;-59
2021/03/31 04:37:32;;;;;;;6.45;2.78;;;8.00;92.50;;;;;;4929534;29;20057;-59
2021/03/31 04:39:58;;;;;;;6.75;2.92;;;8.00;92.10;;;;;;4930646;29;20039;-59
2021/03/31 04:42:24;;;;;;;7.35;3.08;;;8.00;92.20;;;;;;4926503;29;20110;-60
2021/03/31 04:44:50;;;;;;;5.88;2.72;;;7.90;93.10;;;;;;4939355;29;20024;-60
2021/03/31 04:47:15;;;;;;;9.50;3.05;;;7.90;94.10;;;;;;4937493;29;20042;-60
2021/03/31 04:49:41;;;;;;;7.13;2.80;;;7.80;93.60;;;;;;4954090;28;20023;-60
2021/03/31 04:52:07;;;;;;;7.30;3.88;;;7.80;92.90;;;;;;4932115;29;20036;-60
2021/03/31 04:54:33;;;;;;;9.02;3.55;;;7.90;92.60;;;;;;4933901;29;20056;-59
2021/03/31 04:56:59;;;;;;;11.70;3.83;;;8.00;92.50;;;;;;4937032;29;20054;-61
2021/03/31 04:59:24;;;;;;;6.50;2.80;;;8.00;92.10;;;;;;4938546;29;20059;-61
2021/03/31 05:01:50;;;;;;;8.75;3.03;;;8.00;92.60;;;;;;4937609;29;20722;-58
2021/03/31 05:04:15;;;;;;;6.32;2.90;;;8.00;91.80;;;;;;4931258;29;20135;-60
2021/03/31 05:06:41;;;;;;;6.28;2.92;;;8.00;92.70;;;;;;4922976;29;20067;-61
2021/03/31 05:09:07;;;;;;;5.88;3.05;;;8.00;92.70;;;;;;4939188;29;20040;-61
2021/03/31 05:11:33;;;;;;;8.60;3.60;;;7.90;93.10;;;;;;4924197;29;20482;-59
2021/03/31 05:13:58;;;;;;;18.13;3.55;;;7.80;93.30;;;;;;4939101;29;20098;-59
2021/03/31 05:16:24;;;;;;;9.23;3.22;;;7.80;93.60;;;;;;4937601;29;20042;-59
2021/03/31 05:18:49;;;;;;;5.75;2.92;;;7.80;94.00;;;;;;4937326;29;20481;-61
2021/03/31 05:21:15;;;;;;;5.63;2.90;;;7.80;93.60;;;;;;4919635;29;20043;-59
2021/03/31 05:23:40;;;;;;;9.98;3.70;;;7.80;93.80;;;;;;4935466;29;20720;-60
2021/03/31 05:26:06;;;;;;;10.68;3.03;;;7.90;93.80;;;;;;4935838;29;20536;-58
2021/03/31 05:28:32;;;;;;;11.45;3.83;;;8.00;93.50;;;;;;4932688;29;20031;-61
2021/03/31 05:30:57;;;;;;;8.52;3.60;;;8.10;93.50;;;;;;4931678;29;20032;-60
2021/03/31 05:33:23;;;;;;;8.40;3.22;;;8.20;92.60;;;;;;4930952;29;20019;-60
2021/03/31 05:35:48;;;;;;;9.75;3.65;;;8.30;93.10;;;;;;4939136;29;20094;-60
2021/03/31 05:38:14;;;;;;;9.05;4.32;;;8.40;92.10;;;;;;4934464;28;20031;-59
2021/03/31 05:40:40;;;;;;;13.70;3.45;;;8.40;92.70;;;;;;4938086;29;20039;-60
2021/03/31 05:43:05;;;;;;;5.90;3.17;;;8.50;93.90;;;;;;4932448;29;20023;-61
2021/03/31 05:45:33;;;;;;;10.75;2.97;;;8.50;93.60;;;;;;4936094;28;20046;-61
2021/03/31 05:47:59;;;;;;;9.00;3.00;;;8.50;93.50;;;;;;4936872;29;20159;-61
2021/03/31 05:50:25;;;;;;;6.30;3.13;;;8.60;93.50;;;;;;4935076;29;20110;-60
2021/03/31 05:52:50;;;;;;;5.75;3.17;;;8.70;92.90;;;;;;4921054;29;20579;-61
2021/03/31 05:55:17;;;;;;;10.65;3.65;;;8.80;92.40;;;;;;4929109;29;20250;-60
2021/03/31 05:57:44;;;;;;;10.02;3.53;;;9.00;91.90;;;;;;4933067;29;20036;-61
2021/03/31 06:00:14;;;;;;;11.85;4.30;;;9.20;91.90;;;;;;4929671;29;20111;-61
2021/03/31 06:02:42;;;;;;;9.30;4.60;;;9.60;89.80;;;;;;4928677;29;20039;-60
2021/03/31 06:05:09;;;;;;;6.85;3.60;;;10.00;87.70;;;;;;4933352;29;20023;-61
2021/03/31 06:07:35;;;;;;;10.98;3.30;;;10.50;86.20;;;;;;4923853;29;20035;-61
2021/03/31 06:10:12;;;;;;;8.15;3.53;;;11.00;86.20;;;;;;4933556;29;20027;-61
2021/03/31 06:13:06;;;;;;;8.80;4.05;;;11.30;85.30;;;;;;4929779;29;20028;-60
2021/03/31 06:15:43;;;;;;;15.75;4.07;;;12.00;83.20;;;;;;4929275;29;20517;-62
2021/03/31 06:18:09;;;;;;;5.57;3.20;;;12.90;79.60;;;;;;4931150;29;20420;-59
2021/03/31 06:20:45;;;;;;;9.57;3.80;;;13.60;74.60;;;;;;4932691;29;20035;-61
2021/03/31 06:25:48;;;;;;;7.25;3.72;;;14.10;69.20;;;;;;4932693;29;20039;-61
2021/03/31 06:28:35;;;;;;;9.02;3.70;;;14.20;71.40;;;;;;4929755;29;20110;-61
2021/03/31 06:31:05;;;;;;;12.32;5.45;;;14.70;67.10;;;;;;4924825;29;20628;-61
2021/03/31 06:33:32;;;;;;;6.78;4.03;;;14.80;65.60;;;;;;4924761;29;20162;-59
2021/03/31 06:35:57;;;;;;;13.40;3.92;;;14.80;63.60;;;;;;4933359;29;20036;-61
2021/03/31 06:38:29;;;;;;;12.40;3.88;;;14.80;63.30;;;;;;4933158;29;20031;-61
2021/03/31 06:40:58;;;;;;;13.13;4.70;;;14.90;64.10;;;;;;4934358;29;20174;-60
2021/03/31 06:43:36;;;;;;;10.75;5.13;;;15.00;62.60;;;;;;4931188;29;20387;-62
2021/03/31 06:46:06;;;;;;;11.70;5.15;;;15.40;62.10;;;;;;4934516;28;20024;-62
2021/03/31 06:48:34;;;;;;;8.98;5.00;;;16.20;60.30;;;;;;4937655;28;20028;-62
2021/03/31 06:51:00;;;;;;;8.85;5.10;;;16.80;58.40;;;;;;4934575;28;20034;-61
2021/03/31 06:53:28;;;;;;;11.55;5.30;;;17.60;57.00;;;;;;4932133;29;20031;-62
2021/03/31 06:55:58;;;;;;;11.05;6.75;;;18.40;54.50;;;;;;4939358;28;20023;-62
2021/03/31 06:58:23;;;;;;;14.10;5.30;;;19.40;52.10;;;;;;4934424;29;20036;-62
2021/03/31 07:00:49;;;;;;;10.68;4.85;;;20.00;50.40;;;;;;4940598;28;20046;-62
2021/03/31 07:03:15;;;;;;;6.72;4.35;;;20.60;49.20;;;;;;4922188;29;20024;-61
2021/03/31 07:05:41;;;;;;;11.02;5.07;;;21.40;47.10;;;;;;4925990;29;20026;-62
2021/03/31 07:08:12;;;;;;;10.00;5.70;;;22.10;44.50;;;;;;4925044;29;20064;-61
2021/03/31 07:10:46;;;;;;;8.57;5.30;;;22.80;43.00;;;;;;4920174;29;20458;-62
2021/03/31 07:13:28;;;;;;;8.57;4.60;;;23.20;41.10;;;;;;4930608;29;20039;-62
2021/03/31 07:15:55;;;;;;;10.60;5.40;;;23.40;41.00;;;;;;4932660;29;20087;-62
2021/03/31 07:18:25;;;;;;;9.48;5.70;;;23.00;40.70;;;;;;4929133;29;20374;-62
2021/03/31 07:20:52;;;;;;;11.30;5.22;;;23.30;40.70;;;;;;4946945;29;20512;-62
2021/03/31 07:23:20;;;;;;;8.90;5.68;;;23.50;40.70;;;;;;4929019;29;20035;-62
2021/03/31 07:25:46;;;;;;;12.07;5.25;;;24.00;39.30;;;;;;4931968;29;20492;-62
2021/03/31 07:28:24;;;;;;;14.07;5.38;;;24.00;38.60;;;;;;4924811;29;20036;-62
2021/03/31 07:30:50;;;;;;;12.85;5.43;;;24.10;38.90;;;;;;4922624;29;20159;-62
2021/03/31 07:33:20;;;;;;;9.40;5.10;;;24.40;37.20;;;;;;4941463;29;20032;-60
2021/03/31 07:35:47;;;;;;;8.50;5.60;;;25.00;36.80;;;;;;4947136;29;20043;-60
2021/03/31 07:38:15;;;;;;;7.80;5.60;;;25.00;36.50;;;;;;4934461;29;20645;-62
2021/03/31 07:40:42;;;;;;;9.73;6.05;;;24.80;36.50;;;;;;4932065;29;20508;-62
2021/03/31 07:43:21;;;;;;;11.23;5.70;;;24.90;37.30;;;;;;4929477;29;20372;-62
2021/03/31 07:45:55;;;;;;;9.07;6.75;;;25.10;36.80;;;;;;4929875;29;20027;-62
2021/03/31 07:48:22;;;;;;;11.43;5.78;;;25.60;35.60;;;;;;4925234;29;20020;-62
2021/03/31 07:50:48;;;;;;;22.48;6.60;;;26.10;34.30;;;;;;4940500;28;20030;-61
2021/03/31 07:53:14;;;;;;;12.23;5.97;;;25.80;33.50;;;;;;4931687;29;20033;-62
2021/03/31 07:55:45;;;;;;;12.25;6.20;;;25.50;34.50;;;;;;4935588;29;20031;-64
2021/03/31 07:58:14;;;;;;;11.57;7.05;;;25.50;34.80;;;;;;4926053;29;20024;-61
2021/03/31 08:00:52;;;;;;;16.38;6.32;;;25.70;33.90;;;;;;4950673;28;20043;-60
2021/03/31 08:03:23;;;;;;;14.70;6.75;;;25.70;34.50;;;;;;4923984;29;20031;-61
2021/03/31 08:06:05;;;;;;;8.40;6.15;;;26.30;34.10;;;;;;4939068;29;20036;-63
2021/03/31 08:08:36;;;;;;;10.23;6.25;;;26.30;34.60;;;;;;4937891;29;20028;-62
2021/03/31 08:11:02;;;;;;;13.93;7.15;;;26.00;34.40;;;;;;4933090;29;20034;-61
2021/03/31 08:13:32;;;;;;;11.73;6.82;;;26.30;35.20;;;;;;4930617;29;20035;-62
2021/03/31 08:16:00;;;;;;;12.75;6.00;;;26.30;33.70;;;;;;4936269;28;20027;-62
2021/03/31 08:18:27;;;;;;;10.95;6.30;;;26.20;34.40;;;;;;4933716;29;20110;-62
2021/03/31 08:20:55;;;;;;;11.43;6.75;;;26.00;34.60;;;;;;4937106;29;20629;-63
2021/03/31 08:23:42;;;;;;;18.95;6.88;;;26.10;34.80;;;;;;4934052;29;20103;-60
2021/03/31 08:26:38;;;;;;;10.50;6.53;;;26.10;34.60;;;;;;4957501;28;20024;-61
2021/03/31 08:29:24;;;;;;;11.45;6.65;;;25.70;34.30;;;;;;4939956;29;20058;-62
2021/03/31 08:31:58;;;;;;;11.05;6.50;;;26.00;35.80;;;;;;4925097;29;20153;-63
2021/03/31 08:34:24;;;;;;;13.40;6.55;;;25.80;34.80;;;;;;4938676;29;20027;-61
2021/03/31 08:36:50;;;;;;;9.82;6.18;;;25.50;35.60;;;;;;4935296;28;20083;-61
2021/03/31 08:39:16;;;;;;;14.73;6.72;;;25.50;35.50;;;;;;4927347;29;20067;-61
2021/03/31 08:41:47;;;;;;;15.32;6.63;;;25.80;36.90;;;;;;4937348;28;20592;-60
2021/03/31 08:44:26;;;;;;;12.48;6.63;;;26.10;35.90;;;;;;4935390;29;20023;-62
2021/03/31 08:46:52;;;;;;;10.18;6.72;;;25.70;35.20;;;;;;4937454;29;20106;-62
2021/03/31 08:49:26;;;;;;;11.30;6.20;;;26.20;35.70;;;;;;4939331;29;20110;-62
2021/03/31 08:51:57;;;;;;;12.40;6.88;;;26.10;35.00;;;;;;4936142;29;20035;-62
2021/03/31 08:54:42;;;;;;;14.40;5.95;;;26.30;33.60;;;;;;4932657;29;20055;-62
2021/03/31 08:57:18;;;;;;;15.93;6.68;;;25.90;36.10;;;;;;4936444;29;20027;-61
2021/03/31 08:59:46;;;;;;;12.85;6.78;;;26.60;35.00;;;;;;4939686;29;20059;-62
2021/03/31 09:02:12;;;;;;;13.23;6.80;;;26.40;34.40;;;;;;4933967;29;20032;-61
2021/03/31 09:04:38;;;;;;;9.82;6.95;;;26.60;34.40;;;;;;4950862;28;20032;-60
2021/03/31 09:07:09;;;;;;;12.07;7.10;;;26.50;35.00;;;;;;4939930;29;20070;-62
2021/03/31 09:09:36;;;;;;;14.75;6.72;;;26.50;35.70;;;;;;4927321;29;20079;-62
2021/03/31 09:12:10;;;;;;;13.50;7.70;;;26.30;35.80;;;;;;4929757;29;20446;-62
2021/03/31 09:14:39;;;;;;;13.85;6.60;;;26.30;35.30;;;;;;4934697;29;20111;-62
2021/03/31 09:17:10;;;;;;;13.77;7.63;;;26.50;35.80;;;;;;4933892;29;20147;-61
2021/03/31 09:19:38;;;;;;;15.10;6.90;;;27.00;34.00;;;;;;4932865;29;20070;-61
2021/03/31 09:22:07;;;;;;;15.93;7.07;;;27.30;34.00;;;;;;4933945;29;20036;-62
2021/03/31 09:24:33;;;;;;;11.20;7.57;;;27.40;33.60;;;;;;4933479;29;20019;-62
2021/03/31 09:27:13;;;;;;;15.10;7.63;;;27.40;33.40;;;;;;4915951;29;20378;-61
2021/03/31 09:29:43;;;;;;;12.80;6.72;;;27.90;33.20;;;;;;4933303;29;20562;-61
2021/03/31 09:32:15;;;;;;;8.88;6.75;;;27.40;33.70;;;;;;4927032;29;20042;-60
2021/03/31 09:34:42;;;;;;;14.82;7.90;;;26.80;33.60;;;;;;4931042;29;20075;-67
2021/03/31 09:37:11;;;;;;;11.25;6.53;;;26.00;33.50;;;;;;4930736;29;20031;-62
2021/03/31 09:39:58;;;;;;;12.85;7.85;;;25.90;34.00;;;;;;4932895;29;20122;-62
2021/03/31 09:42:30;;;;;;;10.90;6.25;;;26.00;34.60;;;;;;4924958;29;20104;-61
2021/03/31 09:44:56;;;;;;;14.07;8.38;;;26.80;34.50;;;;;;4934898;29;20088;-62
2021/03/31 09:47:25;;;;;;;15.35;6.95;;;26.60;34.40;;;;;;4934013;29;20032;-62
2021/03/31 09:49:52;;;;;;;11.27;7.05;;;26.70;35.40;;;;;;4939379;29;20024;-61
2021/03/31 09:52:25;;;;;;;13.57;6.88;;;26.90;35.30;;;;;;4940721;28;20457;-61
2021/03/31 09:54:50;;;;;;;12.55;7.45;;;26.50;34.50;;;;;;4937153;29;20024;-61
2021/03/31 09:57:16;;;;;;;10.40;6.95;;;27.00;34.10;;;;;;4933881;29;20482;-61
2021/03/31 09:59:42;;;;;;;11.90;8.32;;;27.10;34.50;;;;;;4937718;29;20032;-60
2021/03/31 10:02:12;;;;;;;10.55;7.00;;;27.30;32.60;;;;;;4925546;29;20030;-60
2021/03/31 10:04:40;;;;;;;16.63;8.48;;;26.80;33.40;;;;;;4939610;29;20062;-60
2021/03/31 10:07:10;;;;;;;18.83;8.18;;;26.40;32.40;;;;;;4935263;29;20028;-60
2021/03/31 10:09:41;;;;;;;15.32;8.02;;;26.10;33.90;;;;;;4922829;29;20410;-60
2021/03/31 10:12:08;;;;;;;10.38;6.90;;;25.80;32.80;;;;;;4937075;29;20036;-60
2021/03/31 10:14:43;;;;;;;20.80;7.95;;;25.60;34.90;;;;;;4933959;28;20028;-59
2021/03/31 10:17:10;;;;;;;20.70;7.97;;;25.50;34.60;;;;;;4933596;29;20923;-60
2021/03/31 10:19:36;;;;;;;16.10;7.35;;;25.30;35.10;;;;;;4933598;29;20020;-60
2021/03/31 10:22:05;;;;;;;12.10;7.65;;;25.20;35.00;;;;;;4935149;29;20062;-60
2021/03/31 10:24:39;;;;;;;13.30;8.07;;;25.00;35.40;;;;;;4933966;29;20532;-59
2021/03/31 10:27:06;;;;;;;12.82;7.05;;;24.90;34.30;;;;;;4932431;29;20074;-61
2021/03/31 10:29:32;;;;;;;17.33;7.93;;;24.90;35.50;;;;;;4930028;29;20043;-63
2021/03/31 10:32:00;;;;;;;17.42;7.43;;;24.90;34.80;;;;;;4930451;29;20027;-60
2021/03/31 10:34:40;;;;;;;14.20;7.95;;;25.00;35.60;;;;;;4931898;29;20024;-60
2021/03/31 10:53:50;;;;;;;15.32;8.00;;;25.00;37.70;;;;;;4927481;29;20512;-61
2021/03/31 10:56:16;;;;;;;13.10;7.70;;;24.70;37.10;;;;;;4929106;29;20102;-59
2021/03/31 10:58:41;;;;;;;14.63;8.32;;;24.70;36.50;;;;;;4931347;28;20043;-62
2021/03/31 11:01:08;;;;;;;13.65;7.28;;;24.80;35.60;;;;;;4931064;29;20027;-61
2021/03/31 11:03:34;;;;;;;11.30;7.80;;;24.60;36.50;;;;;;4931967;29;20034;-60
2021/03/31 11:05:59;;;;;;;12.75;6.72;;;24.50;36.20;;;;;;4932933;29;20725;-61
2021/03/31 11:08:25;;;;;;;18.95;7.95;;;24.50;37.10;;;;;;4922106;29;20112;-60
2021/03/31 11:10:51;;;;;;;16.73;7.70;;;24.40;37.60;;;;;;4929814;29;20030;-61
2021/03/31 11:13:17;;;;;;;11.35;7.43;;;24.40;36.30;;;;;;4934824;29;20043;-61
2021/03/31 11:15:43;;;;;;;14.27;7.65;;;24.50;37.80;;;;;;4934538;29;20036;-61
2021/03/31 11:19:15;;;;;;;14.88;8.55;;;24.50;37.40;;;;;;4928585;29;20034;-60
2021/03/31 11:22:00;;;;;;;14.82;7.07;;;24.60;36.40;;;;;;4923097;29;20083;-61
2021/03/31 11:26:52;;;;;;;14.32;7.35;;;24.20;37.50;;;;;;4927553;29;20046;-62
2021/03/31 11:29:17;;;;;;;12.60;7.47;;;24.30;37.40;;;;;;4927617;29;20106;-61
2021/03/31 11:31:43;;;;;;;13.20;6.82;;;24.30;36.50;;;;;;4927763;29;20039;-61
2021/03/31 11:34:09;;;;;;;17.88;6.75;;;24.30;38.40;;;;;;4924865;29;20092;-61
2021/03/31 11:36:34;;;;;;;10.10;6.45;;;24.20;39.20;;;;;;4931152;29;20782;-61
2021/03/31 11:39:01;;;;;;;11.82;7.55;;;24.10;38.10;;;;;;4931380;29;20058;-61
2021/03/31 11:41:27;;;;;;;9.30;6.13;;;24.20;37.90;;;;;;4921592;29;20103;-62
2021/03/31 11:43:52;;;;;;;12.93;6.10;;;24.20;37.60;;;;;;4935876;29;20443;-61
2021/03/31 11:46:18;;;;;;;10.75;5.45;;;24.30;37.40;;;;;;4932658;29;20027;-62
2021/03/31 11:48:44;;;;;;;11.05;5.55;;;24.20;36.40;;;;;;4934392;29;20023;-62
2021/03/31 11:51:09;;;;;;;10.80;5.47;;;24.30;37.60;;;;;;4937218;29;20032;-60
2021/03/31 11:53:35;;;;;;;12.10;4.93;;;24.30;37.20;;;;;;4930213;29;20061;-61
2021/03/31 11:56:01;;;;;;;9.20;4.82;;;24.20;37.20;;;;;;4933004;29;20043;-62
2021/03/31 11:58:27;;;;;;;12.55;3.83;;;24.30;37.90;;;;;;4916228;29;20756;-61
2021/03/31 12:00:52;;;;;;;13.07;4.28;;;24.30;36.00;;;;;;4929507;28;20103;-62
2021/03/31 12:03:20;;;;;;;11.73;4.18;;;24.20;35.30;;;;;;4922244;29;20591;-61
2021/03/31 12:05:47;;;;;;;6.05;3.92;;;24.30;35.10;;;;;;4920888;28;20049;-61
2021/03/31 12:08:12;;;;;;;8.00;4.15;;;24.30;35.20;;;;;;4936075;29;20027;-61
2021/03/31 12:10:38;;;;;;;9.48;5.43;;;24.40;35.70;;;;;;4936496;29;20047;-61
2021/03/31 12:13:04;;;;;;;7.40;4.60;;;24.20;35.00;;;;;;4912630;29;20040;-62
2021/03/31 12:15:29;;;;;;;7.40;4.07;;;24.20;35.40;;;;;;4928907;29;20036;-61
2021/03/31 12:17:55;;;;;;;7.75;4.38;;;24.20;34.80;;;;;;4930133;28;20032;-61
2021/03/31 12:20:21;;;;;;;6.53;3.78;;;24.20;33.40;;;;;;4940525;29;20027;-61
2021/03/31 12:22:47;;;;;;;5.22;3.30;;;24.10;34.00;;;;;;4930860;29;20083;-61
2021/03/31 12:25:13;;;;;;;5.80;3.50;;;24.10;34.90;;;;;;4933387;29;20035;-62
2021/03/31 12:27:41;;;;;;;13.32;4.25;;;24.20;35.50;;;;;;4930241;29;20023;-61
2021/03/31 12:30:13;;;;;;;11.65;3.67;;;24.10;34.60;;;;;;4927442;29;20028;-60
2021/03/31 12:32:39;;;;;;;8.10;3.50;;;24.10;33.80;;;;;;4923768;29;20490;-61
2021/03/31 12:35:06;;;;;;;10.02;3.70;;;24.00;35.20;;;;;;4928869;29;20048;-61
2021/03/31 12:37:33;;;;;;;8.27;2.63;;;23.90;33.90;;;;;;4942109;28;20110;-61
2021/03/31 12:39:58;;;;;;;7.13;3.10;;;23.90;33.80;;;;;;4938141;28;20031;-60
2021/03/31 12:42:25;;;;;;;7.90;2.80;;;23.90;33.80;;;;;;4928917;29;20464;-61
2021/03/31 12:44:51;;;;;;;5.95;3.20;;;24.00;35.20;;;;;;4937998;29;20393;-61
2021/03/31 12:47:19;;;;;;;7.15;3.17;;;24.00;34.80;;;;;;4934119;29;20108;-62
2021/03/31 12:49:47;;;;;;;5.65;2.75;;;24.00;34.10;;;;;;4930632;29;20024;-60
2021/03/31 12:52:15;;;;;;;6.03;3.15;;;24.00;33.50;;;;;;4930233;29;20038;-62
2021/03/31 12:57:26;;;;;;;7.32;3.13;;;24.10;33.20;;;;;;4924976;29;20047;-61
2021/03/31 12:59:51;;;;;;;6.18;2.63;;;24.00;31.70;;;;;;4926082;29;20028;-61
2021/03/31 13:02:17;;;;;;;8.60;2.67;;;24.00;32.90;;;;;;4930189;29;20150;-61
2021/03/31 13:04:43;;;;;;;9.82;3.05;;;24.00;34.50;;;;;;4929685;29;20030;-62
2021/03/31 13:07:08;;;;;;;7.70;3.20;;;24.00;34.70;;;;;;4931777;29;20121;-61
2021/03/31 13:09:34;;;;;;;7.97;3.55;;;24.00;33.80;;;;;;4922388;28;20067;-62
2021/03/31 13:12:01;;;;;;;5.72;2.85;;;23.90;34.20;;;;;;4929164;29;20031;-61
2021/03/31 13:25:00;;;;;;;5.82;3.00;;;24.10;34.30;;;;;;4930985;29;20407;-61
2021/03/31 13:33:23;;;;;;;9.63;3.13;;;24.10;35.20;;;;;;4928319;29;20118;-60
2021/03/31 13:35:53;;;;;;;4.82;2.42;;;24.10;34.10;;;;;;4928985;29;20504;-59